sensor_id;sensor_type;location;lat;lon;timestamp;temperature;humidity
50955;DHT22;36966;48.064;-0.792;2023-07-30T00:00:09;24.70;53.50
50955;DHT22;36966;48.064;-0.792;2023-07-30T00:02:29;24.60;53.50
50955;DHT22;36966;48.064;-0.792;2023-07-30T00:04:48;24.60;53.60
50955;DHT22;36966;48.064;-0.792;2023-07-30T00:07:07;24.60;53.60
50955;DHT22;36966;48.064;-0.792;2023-07-30T00:09:26;24.60;53.60
50955;DHT22;36966;48.064;-0.792;2023-07-30T00:11:45;24.60;53.60
50955;DHT22;36966;48.064;-0.792;2023-07-30T00:14:05;24.60;53.70
50955;DHT22;36966;48.064;-0.792;2023-07-30T00:16:27;24.50;53.70
50955;DHT22;36966;48.064;-0.792;2023-07-30T00:18:47;24.50;53.70
50955;DHT22;36966;48.064;-0.792;2023-07-30T00:21:06;24.50;53.70
50955;DHT22;36966;48.064;-0.792;2023-07-30T00:23:25;24.50;53.80
50955;DHT22;36966;48.064;-0.792;2023-07-30T00:25:44;24.50;53.80
50955;DHT22;36966;48.064;-0.792;2023-07-30T00:28:04;24.50;53.90
50955;DHT22;36966;48.064;-0.792;2023-07-30T00:30:23;24.50;53.90
50955;DHT22;36966;48.064;-0.792;2023-07-30T00:32:42;24.50;53.90
50955;DHT22;36966;48.064;-0.792;2023-07-30T00:35:02;24.40;53.90
50955;DHT22;36966;48.064;-0.792;2023-07-30T00:37:22;24.40;53.90
50955;DHT22;36966;48.064;-0.792;2023-07-30T00:39:41;24.50;53.90
50955;DHT22;36966;48.064;-0.792;2023-07-30T00:42:00;24.40;53.90
50955;DHT22;36966;48.064;-0.792;2023-07-30T00:44:20;24.40;53.90
50955;DHT22;36966;48.064;-0.792;2023-07-30T00:46:39;24.40;54.00
50955;DHT22;36966;48.064;-0.792;2023-07-30T00:48:58;24.40;54.00
50955;DHT22;36966;48.064;-0.792;2023-07-30T00:51:17;24.40;53.90
50955;DHT22;36966;48.064;-0.792;2023-07-30T00:53:38;24.40;53.90
50955;DHT22;36966;48.064;-0.792;2023-07-30T00:55:57;24.40;54.00
50955;DHT22;36966;48.064;-0.792;2023-07-30T00:58:16;24.30;54.00
50955;DHT22;36966;48.064;-0.792;2023-07-30T01:00:36;24.40;54.00
50955;DHT22;36966;48.064;-0.792;2023-07-30T01:02:55;24.30;54.00
50955;DHT22;36966;48.064;-0.792;2023-07-30T01:05:14;24.40;54.00
50955;DHT22;36966;48.064;-0.792;2023-07-30T01:07:34;24.30;54.00
50955;DHT22;36966;48.064;-0.792;2023-07-30T01:09:53;24.30;54.00
50955;DHT22;36966;48.064;-0.792;2023-07-30T01:12:13;24.30;54.00
50955;DHT22;36966;48.064;-0.792;2023-07-30T01:14:32;24.30;54.00
50955;DHT22;36966;48.064;-0.792;2023-07-30T01:16:52;24.30;54.00
50955;DHT22;36966;48.064;-0.792;2023-07-30T01:19:11;24.20;54.00
50955;DHT22;36966;48.064;-0.792;2023-07-30T01:21:32;24.20;54.00
50955;DHT22;36966;48.064;-0.792;2023-07-30T01:23:51;24.20;54.00
50955;DHT22;36966;48.064;-0.792;2023-07-30T01:26:11;24.20;54.00
50955;DHT22;36966;48.064;-0.792;2023-07-30T01:28:32;24.20;54.00
50955;DHT22;36966;48.064;-0.792;2023-07-30T01:30:54;24.20;54.00
50955;DHT22;36966;48.064;-0.792;2023-07-30T01:33:15;24.20;54.00
50955;DHT22;36966;48.064;-0.792;2023-07-30T01:35:34;24.20;54.00
50955;DHT22;36966;48.064;-0.792;2023-07-30T01:37:54;24.20;54.00
50955;DHT22;36966;48.064;-0.792;2023-07-30T01:40:14;24.20;54.00
50955;DHT22;36966;48.064;-0.792;2023-07-30T01:42:34;24.20;54.00
50955;DHT22;36966;48.064;-0.792;2023-07-30T01:44:53;24.20;54.00
50955;DHT22;36966;48.064;-0.792;2023-07-30T01:47:13;24.20;54.00
50955;DHT22;36966;48.064;-0.792;2023-07-30T01:49:32;24.20;54.00
50955;DHT22;36966;48.064;-0.792;2023-07-30T01:51:51;24.20;54.00
50955;DHT22;36966;48.064;-0.792;2023-07-30T01:54:10;24.10;54.00
50955;DHT22;36966;48.064;-0.792;2023-07-30T01:56:30;24.10;54.00
50955;DHT22;36966;48.064;-0.792;2023-07-30T01:58:49;24.10;53.90
50955;DHT22;36966;48.064;-0.792;2023-07-30T02:01:08;24.20;53.90
50955;DHT22;36966;48.064;-0.792;2023-07-30T02:03:28;24.10;53.90
50955;DHT22;36966;48.064;-0.792;2023-07-30T02:05:47;24.10;53.90
50955;DHT22;36966;48.064;-0.792;2023-07-30T02:08:07;24.10;53.90
50955;DHT22;36966;48.064;-0.792;2023-07-30T02:10:26;24.10;53.80
50955;DHT22;36966;48.064;-0.792;2023-07-30T02:12:45;24.10;53.80
50955;DHT22;36966;48.064;-0.792;2023-07-30T02:15:05;24.10;53.80
50955;DHT22;36966;48.064;-0.792;2023-07-30T02:17:24;24.10;53.80
50955;DHT22;36966;48.064;-0.792;2023-07-30T02:19:44;24.00;53.70
50955;DHT22;36966;48.064;-0.792;2023-07-30T02:22:03;24.10;53.80
50955;DHT22;36966;48.064;-0.792;2023-07-30T02:24:22;24.00;53.70
50955;DHT22;36966;48.064;-0.792;2023-07-30T02:26:41;24.00;53.70
50955;DHT22;36966;48.064;-0.792;2023-07-30T02:29:01;24.00;53.70
50955;DHT22;36966;48.064;-0.792;2023-07-30T02:31:20;24.00;53.70
50955;DHT22;36966;48.064;-0.792;2023-07-30T02:33:40;24.00;53.70
50955;DHT22;36966;48.064;-0.792;2023-07-30T02:35:59;24.00;53.70
50955;DHT22;36966;48.064;-0.792;2023-07-30T02:38:18;24.00;53.60
50955;DHT22;36966;48.064;-0.792;2023-07-30T02:40:37;24.00;53.60
50955;DHT22;36966;48.064;-0.792;2023-07-30T02:42:57;23.90;53.60
50955;DHT22;36966;48.064;-0.792;2023-07-30T02:45:16;23.90;53.60
50955;DHT22;36966;48.064;-0.792;2023-07-30T02:47:36;24.00;53.70
50955;DHT22;36966;48.064;-0.792;2023-07-30T02:49:56;24.00;53.70
50955;DHT22;36966;48.064;-0.792;2023-07-30T02:52:15;23.90;53.60
50955;DHT22;36966;48.064;-0.792;2023-07-30T02:54:34;23.90;53.60
50955;DHT22;36966;48.064;-0.792;2023-07-30T02:56:53;23.90;53.70
50955;DHT22;36966;48.064;-0.792;2023-07-30T02:59:12;23.90;53.70
50955;DHT22;36966;48.064;-0.792;2023-07-30T03:01:32;23.90;53.70
50955;DHT22;36966;48.064;-0.792;2023-07-30T03:03:51;23.90;53.70
50955;DHT22;36966;48.064;-0.792;2023-07-30T03:06:10;23.90;53.70
50955;DHT22;36966;48.064;-0.792;2023-07-30T03:08:30;23.80;53.80
50955;DHT22;36966;48.064;-0.792;2023-07-30T03:10:49;23.80;53.80
50955;DHT22;36966;48.064;-0.792;2023-07-30T03:13:08;23.80;53.80
50955;DHT22;36966;48.064;-0.792;2023-07-30T03:15:27;23.90;53.80
50955;DHT22;36966;48.064;-0.792;2023-07-30T03:17:47;23.80;53.80
50955;DHT22;36966;48.064;-0.792;2023-07-30T03:20:06;23.80;54.00
50955;DHT22;36966;48.064;-0.792;2023-07-30T03:22:25;23.80;53.90
50955;DHT22;36966;48.064;-0.792;2023-07-30T03:24:48;23.80;53.90
50955;DHT22;36966;48.064;-0.792;2023-07-30T03:27:07;23.80;53.80
50955;DHT22;36966;48.064;-0.792;2023-07-30T03:29:27;23.80;53.90
50955;DHT22;36966;48.064;-0.792;2023-07-30T03:31:46;23.80;54.00
50955;DHT22;36966;48.064;-0.792;2023-07-30T03:34:05;23.80;54.00
50955;DHT22;36966;48.064;-0.792;2023-07-30T03:36:24;23.70;54.00
50955;DHT22;36966;48.064;-0.792;2023-07-30T03:38:44;23.70;53.90
50955;DHT22;36966;48.064;-0.792;2023-07-30T03:41:04;23.70;53.90
50955;DHT22;36966;48.064;-0.792;2023-07-30T03:43:23;23.70;53.90
50955;DHT22;36966;48.064;-0.792;2023-07-30T03:45:42;23.70;53.90
50955;DHT22;36966;48.064;-0.792;2023-07-30T03:48:02;23.70;53.90
50955;DHT22;36966;48.064;-0.792;2023-07-30T03:50:21;23.70;53.90
50955;DHT22;36966;48.064;-0.792;2023-07-30T03:52:40;23.70;53.90
50955;DHT22;36966;48.064;-0.792;2023-07-30T03:54:59;23.70;53.90
50955;DHT22;36966;48.064;-0.792;2023-07-30T03:57:18;23.70;54.00
50955;DHT22;36966;48.064;-0.792;2023-07-30T03:59:38;23.70;54.00
50955;DHT22;36966;48.064;-0.792;2023-07-30T04:01:57;23.70;54.00
50955;DHT22;36966;48.064;-0.792;2023-07-30T04:04:16;23.70;53.90
50955;DHT22;36966;48.064;-0.792;2023-07-30T04:06:36;23.70;53.90
50955;DHT22;36966;48.064;-0.792;2023-07-30T04:08:55;23.70;53.90
50955;DHT22;36966;48.064;-0.792;2023-07-30T04:11:14;23.70;53.90
50955;DHT22;36966;48.064;-0.792;2023-07-30T04:13:34;23.70;53.90
50955;DHT22;36966;48.064;-0.792;2023-07-30T04:15:53;23.70;53.80
50955;DHT22;36966;48.064;-0.792;2023-07-30T04:18:12;23.70;53.80
50955;DHT22;36966;48.064;-0.792;2023-07-30T04:20:31;23.70;53.80
50955;DHT22;36966;48.064;-0.792;2023-07-30T04:22:51;23.70;53.80
50955;DHT22;36966;48.064;-0.792;2023-07-30T04:25:10;23.70;53.70
50955;DHT22;36966;48.064;-0.792;2023-07-30T04:27:29;23.70;53.80
50955;DHT22;36966;48.064;-0.792;2023-07-30T04:29:48;23.70;53.80
50955;DHT22;36966;48.064;-0.792;2023-07-30T04:32:08;23.70;53.70
50955;DHT22;36966;48.064;-0.792;2023-07-30T04:34:27;23.70;53.70
50955;DHT22;36966;48.064;-0.792;2023-07-30T04:36:47;23.70;53.70
50955;DHT22;36966;48.064;-0.792;2023-07-30T04:39:06;23.70;53.70
50955;DHT22;36966;48.064;-0.792;2023-07-30T04:41:25;23.70;53.70
50955;DHT22;36966;48.064;-0.792;2023-07-30T04:43:44;23.70;53.70
50955;DHT22;36966;48.064;-0.792;2023-07-30T04:46:04;23.70;53.60
50955;DHT22;36966;48.064;-0.792;2023-07-30T04:48:23;23.70;53.70
50955;DHT22;36966;48.064;-0.792;2023-07-30T04:50:42;23.70;53.70
50955;DHT22;36966;48.064;-0.792;2023-07-30T04:53:02;23.70;53.70
50955;DHT22;36966;48.064;-0.792;2023-07-30T04:55:21;23.70;53.70
50955;DHT22;36966;48.064;-0.792;2023-07-30T04:57:40;23.70;53.60
50955;DHT22;36966;48.064;-0.792;2023-07-30T04:59:59;23.70;53.60
50955;DHT22;36966;48.064;-0.792;2023-07-30T05:02:19;23.70;53.60
50955;DHT22;36966;48.064;-0.792;2023-07-30T05:04:38;23.70;53.60
50955;DHT22;36966;48.064;-0.792;2023-07-30T05:06:57;23.70;53.60
50955;DHT22;36966;48.064;-0.792;2023-07-30T05:09:17;23.70;53.60
50955;DHT22;36966;48.064;-0.792;2023-07-30T05:11:36;23.70;53.60
50955;DHT22;36966;48.064;-0.792;2023-07-30T05:13:55;23.70;53.60
50955;DHT22;36966;48.064;-0.792;2023-07-30T05:16:14;23.70;53.50
50955;DHT22;36966;48.064;-0.792;2023-07-30T05:18:33;23.70;53.60
50955;DHT22;36966;48.064;-0.792;2023-07-30T05:20:54;23.70;53.50
50955;DHT22;36966;48.064;-0.792;2023-07-30T05:23:13;23.70;53.70
50955;DHT22;36966;48.064;-0.792;2023-07-30T05:25:33;23.80;53.60
50955;DHT22;36966;48.064;-0.792;2023-07-30T05:27:52;23.80;53.50
50955;DHT22;36966;48.064;-0.792;2023-07-30T05:30:11;23.80;53.40
50955;DHT22;36966;48.064;-0.792;2023-07-30T05:32:30;23.80;53.30
50955;DHT22;36966;48.064;-0.792;2023-07-30T05:34:50;23.80;53.30
50955;DHT22;36966;48.064;-0.792;2023-07-30T05:37:09;23.80;53.30
50955;DHT22;36966;48.064;-0.792;2023-07-30T05:39:28;23.90;53.30
50955;DHT22;36966;48.064;-0.792;2023-07-30T05:41:48;23.80;53.30
50955;DHT22;36966;48.064;-0.792;2023-07-30T05:44:07;23.80;53.30
50955;DHT22;36966;48.064;-0.792;2023-07-30T05:46:26;23.90;53.20
50955;DHT22;36966;48.064;-0.792;2023-07-30T05:48:45;23.90;53.20
50955;DHT22;36966;48.064;-0.792;2023-07-30T05:51:05;23.90;53.20
50955;DHT22;36966;48.064;-0.792;2023-07-30T05:53:24;23.90;53.20
50955;DHT22;36966;48.064;-0.792;2023-07-30T05:55:43;23.90;53.20
50955;DHT22;36966;48.064;-0.792;2023-07-30T05:58:03;23.90;53.20
50955;DHT22;36966;48.064;-0.792;2023-07-30T06:00:22;23.90;53.20
50955;DHT22;36966;48.064;-0.792;2023-07-30T06:02:41;23.90;53.20
50955;DHT22;36966;48.064;-0.792;2023-07-30T06:05:01;23.90;53.20
50955;DHT22;36966;48.064;-0.792;2023-07-30T06:07:20;23.90;53.20
50955;DHT22;36966;48.064;-0.792;2023-07-30T06:09:39;23.90;53.10
50955;DHT22;36966;48.064;-0.792;2023-07-30T06:11:59;23.90;53.20
50955;DHT22;36966;48.064;-0.792;2023-07-30T06:14:18;24.00;53.20
50955;DHT22;36966;48.064;-0.792;2023-07-30T06:16:37;23.90;53.20
50955;DHT22;36966;48.064;-0.792;2023-07-30T06:18:56;23.90;53.20
50955;DHT22;36966;48.064;-0.792;2023-07-30T06:21:15;23.90;53.20
50955;DHT22;36966;48.064;-0.792;2023-07-30T06:23:35;24.00;53.20
50955;DHT22;36966;48.064;-0.792;2023-07-30T06:25:54;23.90;53.20
50955;DHT22;36966;48.064;-0.792;2023-07-30T06:28:13;24.00;53.20
50955;DHT22;36966;48.064;-0.792;2023-07-30T06:30:33;23.90;53.20
50955;DHT22;36966;48.064;-0.792;2023-07-30T06:32:52;24.00;53.20
50955;DHT22;36966;48.064;-0.792;2023-07-30T06:35:11;24.00;53.20
50955;DHT22;36966;48.064;-0.792;2023-07-30T06:37:31;23.90;53.20
50955;DHT22;36966;48.064;-0.792;2023-07-30T06:39:50;24.00;53.30
50955;DHT22;36966;48.064;-0.792;2023-07-30T06:42:09;24.00;53.20
50955;DHT22;36966;48.064;-0.792;2023-07-30T06:44:29;24.00;53.30
50955;DHT22;36966;48.064;-0.792;2023-07-30T06:46:48;24.00;53.30
50955;DHT22;36966;48.064;-0.792;2023-07-30T06:49:07;24.00;53.30
50955;DHT22;36966;48.064;-0.792;2023-07-30T06:51:27;24.00;53.30
50955;DHT22;36966;48.064;-0.792;2023-07-30T06:53:46;24.00;53.30
50955;DHT22;36966;48.064;-0.792;2023-07-30T06:56:06;24.00;53.40
50955;DHT22;36966;48.064;-0.792;2023-07-30T06:58:25;24.00;53.40
50955;DHT22;36966;48.064;-0.792;2023-07-30T07:00:45;24.00;53.40
50955;DHT22;36966;48.064;-0.792;2023-07-30T07:03:04;24.00;53.30
50955;DHT22;36966;48.064;-0.792;2023-07-30T07:05:23;24.00;53.40
50955;DHT22;36966;48.064;-0.792;2023-07-30T07:07:44;24.00;53.30
50955;DHT22;36966;48.064;-0.792;2023-07-30T07:10:04;24.00;53.40
50955;DHT22;36966;48.064;-0.792;2023-07-30T07:12:23;24.00;53.30
50955;DHT22;36966;48.064;-0.792;2023-07-30T07:14:42;24.10;53.30
50955;DHT22;36966;48.064;-0.792;2023-07-30T07:17:02;24.10;53.40
50955;DHT22;36966;48.064;-0.792;2023-07-30T07:19:21;24.10;53.40
50955;DHT22;36966;48.064;-0.792;2023-07-30T07:21:40;24.10;53.50
50955;DHT22;36966;48.064;-0.792;2023-07-30T07:23:59;24.10;53.50
50955;DHT22;36966;48.064;-0.792;2023-07-30T07:26:18;24.20;53.40
50955;DHT22;36966;48.064;-0.792;2023-07-30T07:28:38;24.20;53.40
50955;DHT22;36966;48.064;-0.792;2023-07-30T07:30:57;24.20;53.40
50955;DHT22;36966;48.064;-0.792;2023-07-30T07:33:17;24.20;53.40
50955;DHT22;36966;48.064;-0.792;2023-07-30T07:35:36;24.30;53.30
50955;DHT22;36966;48.064;-0.792;2023-07-30T07:37:55;24.30;53.30
50955;DHT22;36966;48.064;-0.792;2023-07-30T07:40:14;24.40;53.20
50955;DHT22;36966;48.064;-0.792;2023-07-30T07:42:34;24.40;53.30
50955;DHT22;36966;48.064;-0.792;2023-07-30T07:44:53;24.40;53.30
50955;DHT22;36966;48.064;-0.792;2023-07-30T07:47:12;24.40;53.30
50955;DHT22;36966;48.064;-0.792;2023-07-30T07:49:31;24.50;53.30
50955;DHT22;36966;48.064;-0.792;2023-07-30T07:51:51;24.50;53.30
50955;DHT22;36966;48.064;-0.792;2023-07-30T07:54:10;24.50;53.30
50955;DHT22;36966;48.064;-0.792;2023-07-30T07:56:30;24.50;53.30
50955;DHT22;36966;48.064;-0.792;2023-07-30T07:58:50;24.60;53.20
50955;DHT22;36966;48.064;-0.792;2023-07-30T08:01:09;24.60;53.30
50955;DHT22;36966;48.064;-0.792;2023-07-30T08:03:28;24.60;53.30
50955;DHT22;36966;48.064;-0.792;2023-07-30T08:05:48;24.70;53.30
50955;DHT22;36966;48.064;-0.792;2023-07-30T08:08:07;24.70;53.30
50955;DHT22;36966;48.064;-0.792;2023-07-30T08:10:26;24.70;53.30
50955;DHT22;36966;48.064;-0.792;2023-07-30T08:12:45;24.70;53.20
50955;DHT22;36966;48.064;-0.792;2023-07-30T08:15:06;24.70;53.10
50955;DHT22;36966;48.064;-0.792;2023-07-30T08:17:25;24.80;53.10
50955;DHT22;36966;48.064;-0.792;2023-07-30T08:19:44;24.80;53.10
50955;DHT22;36966;48.064;-0.792;2023-07-30T08:22:04;24.80;53.10
50955;DHT22;36966;48.064;-0.792;2023-07-30T08:24:23;24.90;53.00
50955;DHT22;36966;48.064;-0.792;2023-07-30T08:26:42;24.90;53.00
50955;DHT22;36966;48.064;-0.792;2023-07-30T08:29:01;24.90;52.90
50955;DHT22;36966;48.064;-0.792;2023-07-30T08:31:21;25.00;53.00
50955;DHT22;36966;48.064;-0.792;2023-07-30T08:33:40;25.00;53.00
50955;DHT22;36966;48.064;-0.792;2023-07-30T08:35:59;25.00;53.00
50955;DHT22;36966;48.064;-0.792;2023-07-30T08:38:18;25.00;53.00
50955;DHT22;36966;48.064;-0.792;2023-07-30T08:40:38;25.00;52.90
50955;DHT22;36966;48.064;-0.792;2023-07-30T08:42:57;25.00;52.90
50955;DHT22;36966;48.064;-0.792;2023-07-30T08:45:16;25.00;52.80
50955;DHT22;36966;48.064;-0.792;2023-07-30T08:47:37;25.10;52.80
50955;DHT22;36966;48.064;-0.792;2023-07-30T08:49:56;25.00;52.60
50955;DHT22;36966;48.064;-0.792;2023-07-30T08:52:16;25.10;52.60
50955;DHT22;36966;48.064;-0.792;2023-07-30T08:54:36;25.10;52.70
50955;DHT22;36966;48.064;-0.792;2023-07-30T08:56:56;25.10;52.80
50955;DHT22;36966;48.064;-0.792;2023-07-30T08:59:15;25.10;52.60
50955;DHT22;36966;48.064;-0.792;2023-07-30T09:01:37;25.20;52.70
50955;DHT22;36966;48.064;-0.792;2023-07-30T09:03:56;25.20;52.60
50955;DHT22;36966;48.064;-0.792;2023-07-30T09:06:18;25.10;52.70
50955;DHT22;36966;48.064;-0.792;2023-07-30T09:08:37;25.20;52.50
50955;DHT22;36966;48.064;-0.792;2023-07-30T09:10:56;25.20;52.70
50955;DHT22;36966;48.064;-0.792;2023-07-30T09:13:20;25.20;52.50
50955;DHT22;36966;48.064;-0.792;2023-07-30T09:15:39;25.20;52.60
50955;DHT22;36966;48.064;-0.792;2023-07-30T09:17:59;25.20;52.50
50955;DHT22;36966;48.064;-0.792;2023-07-30T09:20:19;25.20;52.30
50955;DHT22;36966;48.064;-0.792;2023-07-30T09:22:38;25.20;52.50
50955;DHT22;36966;48.064;-0.792;2023-07-30T09:25:00;25.20;52.60
50955;DHT22;36966;48.064;-0.792;2023-07-30T09:27:22;25.20;52.60
50955;DHT22;36966;48.064;-0.792;2023-07-30T09:29:49;25.20;52.70
50955;DHT22;36966;48.064;-0.792;2023-07-30T09:32:08;25.10;52.70
50955;DHT22;36966;48.064;-0.792;2023-07-30T09:34:28;25.10;52.80
50955;DHT22;36966;48.064;-0.792;2023-07-30T09:36:53;25.10;52.80
50955;DHT22;36966;48.064;-0.792;2023-07-30T09:39:17;25.10;52.80
50955;DHT22;36966;48.064;-0.792;2023-07-30T09:41:40;25.10;52.80
50955;DHT22;36966;48.064;-0.792;2023-07-30T09:44:00;25.10;52.80
50955;DHT22;36966;48.064;-0.792;2023-07-30T09:46:19;25.10;52.70
50955;DHT22;36966;48.064;-0.792;2023-07-30T09:48:38;25.10;52.70
50955;DHT22;36966;48.064;-0.792;2023-07-30T09:51:01;25.10;52.70
50955;DHT22;36966;48.064;-0.792;2023-07-30T09:53:21;25.10;52.70
50955;DHT22;36966;48.064;-0.792;2023-07-30T09:55:41;25.10;52.80
50955;DHT22;36966;48.064;-0.792;2023-07-30T09:58:00;25.10;52.70
50955;DHT22;36966;48.064;-0.792;2023-07-30T10:00:19;25.10;52.80
50955;DHT22;36966;48.064;-0.792;2023-07-30T10:02:39;25.10;52.70
50955;DHT22;36966;48.064;-0.792;2023-07-30T10:04:59;25.20;52.80
50955;DHT22;36966;48.064;-0.792;2023-07-30T10:07:20;25.10;52.60
50955;DHT22;36966;48.064;-0.792;2023-07-30T10:09:41;25.20;52.40
50955;DHT22;36966;48.064;-0.792;2023-07-30T10:12:04;25.20;52.60
50955;DHT22;36966;48.064;-0.792;2023-07-30T10:14:23;25.20;52.40
50955;DHT22;36966;48.064;-0.792;2023-07-30T10:16:52;25.30;52.40
50955;DHT22;36966;48.064;-0.792;2023-07-30T10:19:11;25.30;52.40
50955;DHT22;36966;48.064;-0.792;2023-07-30T10:21:32;25.30;52.00
50955;DHT22;36966;48.064;-0.792;2023-07-30T10:23:58;25.40;51.50
50955;DHT22;36966;48.064;-0.792;2023-07-30T10:26:18;25.50;51.30
50955;DHT22;36966;48.064;-0.792;2023-07-30T10:28:45;25.60;51.40
50955;DHT22;36966;48.064;-0.792;2023-07-30T10:31:05;25.60;51.40
50955;DHT22;36966;48.064;-0.792;2023-07-30T10:36:04;25.70;51.20
50955;DHT22;36966;48.064;-0.792;2023-07-30T10:38:30;25.80;51.00
50955;DHT22;36966;48.064;-0.792;2023-07-30T10:41:05;25.80;51.10
50955;DHT22;36966;48.064;-0.792;2023-07-30T10:43:29;25.80;51.00
50955;DHT22;36966;48.064;-0.792;2023-07-30T10:45:51;25.80;51.20
50955;DHT22;36966;48.064;-0.792;2023-07-30T10:48:11;25.80;51.10
50955;DHT22;36966;48.064;-0.792;2023-07-30T10:50:30;25.80;51.20
50955;DHT22;36966;48.064;-0.792;2023-07-30T10:52:50;25.80;51.20
50955;DHT22;36966;48.064;-0.792;2023-07-30T10:55:09;25.80;51.40
50955;DHT22;36966;48.064;-0.792;2023-07-30T10:57:29;25.80;51.40
50955;DHT22;36966;48.064;-0.792;2023-07-30T10:59:48;25.80;51.50
50955;DHT22;36966;48.064;-0.792;2023-07-30T11:02:08;25.80;51.50
50955;DHT22;36966;48.064;-0.792;2023-07-30T11:04:27;25.80;51.60
50955;DHT22;36966;48.064;-0.792;2023-07-30T11:06:47;25.80;51.50
50955;DHT22;36966;48.064;-0.792;2023-07-30T11:09:17;25.90;51.50
50955;DHT22;36966;48.064;-0.792;2023-07-30T11:11:37;25.90;51.40
50955;DHT22;36966;48.064;-0.792;2023-07-30T11:13:59;25.80;51.60
50955;DHT22;36966;48.064;-0.792;2023-07-30T11:16:19;25.80;51.70
50955;DHT22;36966;48.064;-0.792;2023-07-30T11:18:38;25.80;51.80
50955;DHT22;36966;48.064;-0.792;2023-07-30T11:21:08;25.70;51.90
50955;DHT22;36966;48.064;-0.792;2023-07-30T11:23:27;25.70;51.90
50955;DHT22;36966;48.064;-0.792;2023-07-30T11:25:50;25.70;52.00
50955;DHT22;36966;48.064;-0.792;2023-07-30T11:28:09;25.60;52.10
50955;DHT22;36966;48.064;-0.792;2023-07-30T11:30:29;25.60;52.20
50955;DHT22;36966;48.064;-0.792;2023-07-30T11:32:49;25.60;52.40
50955;DHT22;36966;48.064;-0.792;2023-07-30T11:35:08;25.50;52.50
50955;DHT22;36966;48.064;-0.792;2023-07-30T11:37:27;25.50;52.60
50955;DHT22;36966;48.064;-0.792;2023-07-30T11:39:47;25.50;52.60
50955;DHT22;36966;48.064;-0.792;2023-07-30T11:42:07;25.50;52.50
50955;DHT22;36966;48.064;-0.792;2023-07-30T11:44:33;25.40;52.60
50955;DHT22;36966;48.064;-0.792;2023-07-30T11:46:53;25.40;52.70
50955;DHT22;36966;48.064;-0.792;2023-07-30T11:49:13;25.50;52.60
50955;DHT22;36966;48.064;-0.792;2023-07-30T11:51:33;25.40;52.60
50955;DHT22;36966;48.064;-0.792;2023-07-30T11:53:53;25.50;52.70
50955;DHT22;36966;48.064;-0.792;2023-07-30T11:56:31;25.50;52.60
50955;DHT22;36966;48.064;-0.792;2023-07-30T11:58:55;25.50;52.60
50955;DHT22;36966;48.064;-0.792;2023-07-30T12:01:15;25.50;52.60
50955;DHT22;36966;48.064;-0.792;2023-07-30T12:03:35;25.50;52.60
50955;DHT22;36966;48.064;-0.792;2023-07-30T12:05:54;25.50;52.50
50955;DHT22;36966;48.064;-0.792;2023-07-30T12:08:13;25.50;52.40
50955;DHT22;36966;48.064;-0.792;2023-07-30T12:10:45;25.50;52.50
50955;DHT22;36966;48.064;-0.792;2023-07-30T12:13:10;25.50;52.40
50955;DHT22;36966;48.064;-0.792;2023-07-30T12:15:29;25.50;52.40
50955;DHT22;36966;48.064;-0.792;2023-07-30T12:17:49;25.60;52.50
50955;DHT22;36966;48.064;-0.792;2023-07-30T12:20:08;25.60;52.50
50955;DHT22;36966;48.064;-0.792;2023-07-30T12:22:28;25.60;52.30
50955;DHT22;36966;48.064;-0.792;2023-07-30T12:24:47;25.60;52.20
50955;DHT22;36966;48.064;-0.792;2023-07-30T12:27:06;25.60;52.30
50955;DHT22;36966;48.064;-0.792;2023-07-30T12:29:25;25.60;52.30
50955;DHT22;36966;48.064;-0.792;2023-07-30T12:31:45;25.60;52.50
50955;DHT22;36966;48.064;-0.792;2023-07-30T12:34:04;25.60;52.50
50955;DHT22;36966;48.064;-0.792;2023-07-30T12:36:24;25.50;52.50
50955;DHT22;36966;48.064;-0.792;2023-07-30T12:38:43;25.50;52.60
50955;DHT22;36966;48.064;-0.792;2023-07-30T12:41:03;25.50;52.60
50955;DHT22;36966;48.064;-0.792;2023-07-30T12:43:22;25.50;52.50
50955;DHT22;36966;48.064;-0.792;2023-07-30T12:45:41;25.60;52.50
50955;DHT22;36966;48.064;-0.792;2023-07-30T12:48:00;25.60;52.50
50955;DHT22;36966;48.064;-0.792;2023-07-30T12:50:19;25.60;52.40
50955;DHT22;36966;48.064;-0.792;2023-07-30T12:52:39;25.50;52.40
50955;DHT22;36966;48.064;-0.792;2023-07-30T12:54:58;25.60;52.30
50955;DHT22;36966;48.064;-0.792;2023-07-30T12:57:17;25.60;52.30
50955;DHT22;36966;48.064;-0.792;2023-07-30T12:59:37;25.50;52.10
50955;DHT22;36966;48.064;-0.792;2023-07-30T13:01:57;25.60;52.20
50955;DHT22;36966;48.064;-0.792;2023-07-30T13:04:16;25.60;52.20
50955;DHT22;36966;48.064;-0.792;2023-07-30T13:06:36;25.50;52.20
50955;DHT22;36966;48.064;-0.792;2023-07-30T13:08:55;25.50;52.20
50955;DHT22;36966;48.064;-0.792;2023-07-30T13:11:14;25.50;52.30
50955;DHT22;36966;48.064;-0.792;2023-07-30T13:13:33;25.50;52.40
50955;DHT22;36966;48.064;-0.792;2023-07-30T13:15:53;25.50;52.40
50955;DHT22;36966;48.064;-0.792;2023-07-30T13:18:16;25.50;52.50
50955;DHT22;36966;48.064;-0.792;2023-07-30T13:20:35;25.50;52.50
50955;DHT22;36966;48.064;-0.792;2023-07-30T13:22:55;25.40;52.50
50955;DHT22;36966;48.064;-0.792;2023-07-30T13:25:14;25.40;52.40
50955;DHT22;36966;48.064;-0.792;2023-07-30T13:27:33;25.40;52.40
50955;DHT22;36966;48.064;-0.792;2023-07-30T13:29:52;25.40;52.30
50955;DHT22;36966;48.064;-0.792;2023-07-30T13:32:12;25.40;52.30
50955;DHT22;36966;48.064;-0.792;2023-07-30T13:34:31;25.40;52.30
50955;DHT22;36966;48.064;-0.792;2023-07-30T13:36:50;25.40;52.30
50955;DHT22;36966;48.064;-0.792;2023-07-30T13:39:10;25.40;52.40
50955;DHT22;36966;48.064;-0.792;2023-07-30T13:41:29;25.40;52.40
50955;DHT22;36966;48.064;-0.792;2023-07-30T13:43:48;25.40;52.40
50955;DHT22;36966;48.064;-0.792;2023-07-30T13:46:07;25.40;52.50
50955;DHT22;36966;48.064;-0.792;2023-07-30T13:48:26;25.40;52.50
50955;DHT22;36966;48.064;-0.792;2023-07-30T13:50:46;25.40;52.40
50955;DHT22;36966;48.064;-0.792;2023-07-30T13:53:05;25.40;52.50
50955;DHT22;36966;48.064;-0.792;2023-07-30T13:55:24;25.40;52.50
50955;DHT22;36966;48.064;-0.792;2023-07-30T13:57:43;25.40;52.50
50955;DHT22;36966;48.064;-0.792;2023-07-30T14:00:03;25.50;52.50
50955;DHT22;36966;48.064;-0.792;2023-07-30T14:02:23;25.50;52.50
50955;DHT22;36966;48.064;-0.792;2023-07-30T14:04:42;25.50;52.60
50955;DHT22;36966;48.064;-0.792;2023-07-30T14:07:02;25.50;52.60
50955;DHT22;36966;48.064;-0.792;2023-07-30T14:09:21;25.50;52.60
50955;DHT22;36966;48.064;-0.792;2023-07-30T14:11:40;25.40;52.60
50955;DHT22;36966;48.064;-0.792;2023-07-30T14:14:03;25.40;52.70
50955;DHT22;36966;48.064;-0.792;2023-07-30T14:16:23;25.40;52.60
50955;DHT22;36966;48.064;-0.792;2023-07-30T14:18:43;25.40;52.60
50955;DHT22;36966;48.064;-0.792;2023-07-30T14:21:02;25.40;52.70
50955;DHT22;36966;48.064;-0.792;2023-07-30T14:23:22;25.40;52.70
50955;DHT22;36966;48.064;-0.792;2023-07-30T14:25:41;25.40;52.70
50955;DHT22;36966;48.064;-0.792;2023-07-30T14:28:00;25.50;52.70
50955;DHT22;36966;48.064;-0.792;2023-07-30T14:30:20;25.40;52.80